Time;durP1;ratioP1;P1;durP2;ratioP2;P2;SDS_P1;SDS_P2;PMS_P1;PMS_P2;Temp;Humidity;BMP_temperature;BMP_pressure;BME280_temperature;BME280_humidity;BME280_pressure;Samples;Min_cycle;Max_cycle;Signal;HPM_P1;HPM_P2
2021/09/30 00:00:20;;;;;;;;;;;;;;;;;;1017978;29;978;-35
2021/09/30 00:00:50;;;;;;;;;;;;;;;;;;1026257;28;964;-35
2021/09/30 00:01:21;;;;;;;;;;;;;;;;;;1025599;28;1458;-34
2021/09/30 00:01:51;;;;;;;;;;;;;;;;;;1025795;28;1024;-35
2021/09/30 00:02:22;;;;;;;;;;;;;;;;;;1021952;29;1222;-35
2021/09/30 00:02:52;;;;;;;;;;;;;;;;;;1018057;28;929;-32
2021/09/30 00:03:23;;;;;;;;;;;;;;;;;;1025977;28;1670;-35
2021/09/30 00:03:53;;;;;;;;;;;;;;;;;;1025617;28;1619;-35
2021/09/30 00:04:24;;;;;;;;;;;;;;;;;;1021731;28;1403;-33
2021/09/30 00:04:55;;;;;;;;;;;;;;;;;;1026005;28;1049;-35
2021/09/30 00:05:26;;;;;;;;;;;;;;;;;;1013720;29;1076;-35
2021/09/30 00:05:56;;;;;;;;;;;;;;;;;;1002750;29;1059;-35
2021/09/30 00:06:26;;;;;;;;;;;;;;;;;;1002195;29;1477;-37
2021/09/30 00:06:57;;;;;;;;;;;;;;;;;;1002760;29;1164;-36
2021/09/30 00:07:28;;;;;;;;;;;;;;;;;;1014121;29;979;-34
2021/09/30 00:07:58;;;;;;;;;;;;;;;;;;1022076;29;1033;-34
2021/09/30 00:08:29;;;;;;;;;;;;;;;;;;1021858;29;896;-34
2021/09/30 00:09:00;;;;;;;;;;;;;;;;;;1022285;28;906;-35
2021/09/30 00:09:30;;;;;;;;;;;;;;;;;;1029865;28;924;-35
2021/09/30 00:10:01;;;;;;;;;;;;;;;;;;1030161;28;1160;-35
2021/09/30 00:10:32;;;;;;;;;;;;;;;;;;1026706;28;918;-34
2021/09/30 00:11:10;;;;;;;;;;;;;;;;;;1026906;28;891;-36
2021/09/30 00:11:47;;;;;;;;;;;;;;;;;;1025824;28;959;-33
2021/09/30 00:12:23;;;;;;;;;;;;;;;;;;1026026;28;1210;-37
2021/09/30 00:12:59;;;;;;;;;;;;;;;;;;1026058;28;1468;-35
2021/09/30 00:14:40;;;;;;;;;;;;;;;;;;1025778;28;1109;-35
2021/09/30 00:15:15;;;;;;;;;;;;;;;;;;1028811;28;968;-34
2021/09/30 00:16:49;;;;;;;;;;;;;;;;;;1021837;29;1140;-35
2021/09/30 00:17:48;;;;;;;;;;;;;;;;;;1017115;29;1513;-37
2021/09/30 00:32:28;;;;;;;;;;;;;;;;;;1025755;28;1469;-33
2021/09/30 00:34:41;;;;;;;;;;;;;;;;;;1021693;29;1388;-35
2021/09/30 00:39:45;;;;;;;;;;;;;;;;;;1030055;28;1092;-35
2021/09/30 00:41:24;;;;;;;;;;;;;;;;;;1013322;29;1085;-33
2021/09/30 00:42:03;;;;;;;;;;;;;;;;;;1017819;29;1155;-35
2021/09/30 00:46:19;;;;;;;;;;;;;;;;;;1016257;29;1223;-36
2021/09/30 00:48:35;;;;;;;;;;;;;;;;;;1017025;29;975;-35
2021/09/30 00:52:31;;;;;;;;;;;;;;;;;;1025896;28;1023;-32
2021/09/30 00:53:36;;;;;;;;;;;;;;;;;;1021333;29;1260;-36
2021/09/30 00:55:50;;;;;;;;;;;;;;;;;;1022509;29;968;-33
2021/09/30 01:26:25;;;;;;;;;;;;;;;;;;1025599;28;1158;-37
2021/09/30 01:31:45;;;;;;;;;;;;;;;;;;1016496;29;1385;-34
2021/09/30 01:46:12;;;;;;;;;;;;;;;;;;1026447;28;1493;-33
2021/09/30 01:47:01;;;;;;;;;;;;;;;;;;1022841;29;1199;-35
2021/09/30 01:52:33;;;;;;;;;;;;;;;;;;1026903;28;859;-32
2021/09/30 02:26:57;;;;;;;;;;;;;;;;;;1014311;29;1155;-32
2021/09/30 02:29:56;;;;;;;;;;;;;;;;;;1010984;29;1056;-34
2021/09/30 02:58:55;;;;;;;;;;;;;;;;;;1025931;28;1261;-31
2021/09/30 02:59:26;;;;;;;;;;;;;;;;;;1026466;28;1350;-29
2021/09/30 02:59:57;;;;;;;;;;;;;;;;;;1023430;28;1355;-32
2021/09/30 03:00:34;;;;;;;;;;;;;;;;;;1023647;28;1189;-33
2021/09/30 03:01:11;;;;;;;;;;;;;;;;;;1030177;28;990;-29
2021/09/30 03:01:47;;;;;;;;;;;;;;;;;;1026017;28;1703;-33
2021/09/30 03:02:18;;;;;;;;;;;;;;;;;;1020943;29;1278;-33
2021/09/30 03:02:50;;;;;;;;;;;;;;;;;;1015849;29;1519;-29
2021/09/30 03:03:24;;;;;;;;;;;;;;;;;;1023335;28;1161;-30
2021/09/30 03:03:56;;;;;;;;;;;;;;;;;;1023027;28;1509;-30
2021/09/30 03:04:28;;;;;;;;;;;;;;;;;;1021823;29;1216;-34
2021/09/30 03:05:01;;;;;;;;;;;;;;;;;;1021540;29;1191;-32
2021/09/30 03:05:33;;;;;;;;;;;;;;;;;;1022072;28;1586;-31
2021/09/30 03:06:04;;;;;;;;;;;;;;;;;;1023011;28;1425;-31
2021/09/30 03:06:35;;;;;;;;;;;;;;;;;;1022295;29;1539;-34
2021/09/30 03:07:06;;;;;;;;;;;;;;;;;;1021884;28;1141;-31
2021/09/30 03:07:37;;;;;;;;;;;;;;;;;;1023005;28;1261;-31
2021/09/30 03:08:08;;;;;;;;;;;;;;;;;;1022406;29;1062;-32
2021/09/30 03:08:46;;;;;;;;;;;;;;;;;;1022888;28;1134;-33
2021/09/30 03:09:20;;;;;;;;;;;;;;;;;;1021434;29;1463;-31
2021/09/30 03:09:51;;;;;;;;;;;;;;;;;;1023858;28;1233;-31
2021/09/30 03:10:23;;;;;;;;;;;;;;;;;;1026683;28;1265;-34
2021/09/30 03:10:55;;;;;;;;;;;;;;;;;;1027169;28;1053;-34
2021/09/30 03:11:27;;;;;;;;;;;;;;;;;;1025821;28;1372;-36
2021/09/30 03:12:00;;;;;;;;;;;;;;;;;;1026712;28;1317;-33
2021/09/30 03:12:31;;;;;;;;;;;;;;;;;;1026292;28;1349;-36
2021/09/30 03:13:02;;;;;;;;;;;;;;;;;;1022707;29;1172;-35
2021/09/30 03:13:35;;;;;;;;;;;;;;;;;;1021176;29;1296;-36
2021/09/30 03:14:06;;;;;;;;;;;;;;;;;;1017966;29;1930;-36
2021/09/30 03:14:45;;;;;;;;;;;;;;;;;;1014845;29;2084;-36
2021/09/30 03:15:54;;;;;;;;;;;;;;;;;;1015707;29;1291;-37
2021/09/30 03:16:43;;;;;;;;;;;;;;;;;;1027912;28;1455;-34
2021/09/30 03:17:21;;;;;;;;;;;;;;;;;;1014309;29;1386;-32
2021/09/30 03:17:59;;;;;;;;;;;;;;;;;;1014164;29;891;-35
2021/09/30 03:18:51;;;;;;;;;;;;;;;;;;1014149;29;1253;-36
2021/09/30 03:20:17;;;;;;;;;;;;;;;;;;1010842;29;1052;-36
2021/09/30 03:22:33;;;;;;;;;;;;;;;;;;1011863;29;1117;-34
2021/09/30 03:23:07;;;;;;;;;;;;;;;;;;1014252;29;1000;-35
2021/09/30 03:23:40;;;;;;;;;;;;;;;;;;1013850;29;1024;-35
2021/09/30 03:24:11;;;;;;;;;;;;;;;;;;1019765;29;1158;-35
2021/09/30 03:24:43;;;;;;;;;;;;;;;;;;1026146;28;1368;-35
2021/09/30 03:25:13;;;;;;;;;;;;;;;;;;1030337;28;1580;-35
2021/09/30 03:25:49;;;;;;;;;;;;;;;;;;1038493;28;1346;-35
2021/09/30 03:26:20;;;;;;;;;;;;;;;;;;1034703;28;1059;-32
2021/09/30 03:26:54;;;;;;;;;;;;;;;;;;1025576;28;1431;-36
2021/09/30 03:27:26;;;;;;;;;;;;;;;;;;1016757;29;1122;-37
2021/09/30 03:27:57;;;;;;;;;;;;;;;;;;1014323;29;1741;-35
2021/09/30 03:28:28;;;;;;;;;;;;;;;;;;1010992;29;1188;-35
2021/09/30 03:29:00;;;;;;;;;;;;;;;;;;1018797;28;1366;-35
2021/09/30 03:29:31;;;;;;;;;;;;;;;;;;1022144;29;1200;-34
2021/09/30 03:30:01;;;;;;;;;;;;;;;;;;1018829;28;1205;-35
2021/09/30 03:30:36;;;;;;;;;;;;;;;;;;1021576;29;1692;-31
2021/09/30 03:31:08;;;;;;;;;;;;;;;;;;1018697;29;1308;-33
2021/09/30 03:31:57;;;;;;;;;;;;;;;;;;1021294;29;1393;-33
2021/09/30 03:32:55;;;;;;;;;;;;;;;;;;1013516;29;1379;-36
2021/09/30 03:33:33;;;;;;;;;;;;;;;;;;1010959;29;1226;-34
2021/09/30 03:34:14;;;;;;;;;;;;;;;;;;1023900;28;1918;-35
2021/09/30 03:34:45;;;;;;;;;;;;;;;;;;1026069;28;1217;-34
2021/09/30 03:35:16;;;;;;;;;;;;;;;;;;1017570;29;1479;-35
2021/09/30 03:35:47;;;;;;;;;;;;;;;;;;1017866;29;1195;-31
2021/09/30 03:36:17;;;;;;;;;;;;;;;;;;1013923;29;3637;-33
2021/09/30 03:36:48;;;;;;;;;;;;;;;;;;1014278;29;1212;-32
2021/09/30 03:37:19;;;;;;;;;;;;;;;;;;1022660;28;1134;-36
2021/09/30 03:37:52;;;;;;;;;;;;;;;;;;1021911;29;1356;-34
2021/09/30 03:38:22;;;;;;;;;;;;;;;;;;1022541;28;3546;-36
2021/09/30 03:38:53;;;;;;;;;;;;;;;;;;1026524;28;800;-34
2021/09/30 03:39:24;;;;;;;;;;;;;;;;;;1030418;28;1390;-32
2021/09/30 03:39:55;;;;;;;;;;;;;;;;;;1025830;28;975;-33
2021/09/30 03:40:26;;;;;;;;;;;;;;;;;;1017939;29;1391;-32
2021/09/30 03:40:57;;;;;;;;;;;;;;;;;;1017797;29;1298;-34
2021/09/30 03:41:29;;;;;;;;;;;;;;;;;;1014537;29;969;-33
2021/09/30 03:41:59;;;;;;;;;;;;;;;;;;1018366;29;1226;-32
2021/09/30 03:42:37;;;;;;;;;;;;;;;;;;1015537;29;1375;-36
2021/09/30 03:43:13;;;;;;;;;;;;;;;;;;1013975;29;1394;-34
2021/09/30 03:43:44;;;;;;;;;;;;;;;;;;1020191;29;1229;-35
2021/09/30 03:44:14;;;;;;;;;;;;;;;;;;1019106;29;1133;-34
2021/09/30 03:44:47;;;;;;;;;;;;;;;;;;1022689;28;1608;-33
2021/09/30 03:45:19;;;;;;;;;;;;;;;;;;1021424;29;1130;-32
2021/09/30 03:46:05;;;;;;;;;;;;;;;;;;1014106;29;1323;-34
2021/09/30 03:46:49;;;;;;;;;;;;;;;;;;1014226;29;1384;-35
2021/09/30 03:47:37;;;;;;;;;;;;;;;;;;1026042;28;1414;-32
2021/09/30 03:48:14;;;;;;;;;;;;;;;;;;1033514;28;1175;-35
2021/09/30 03:49:11;;;;;;;;;;;;;;;;;;1034204;28;1457;-34
2021/09/30 03:49:44;;;;;;;;;;;;;;;;;;1034576;28;1149;-35
2021/09/30 03:50:17;;;;;;;;;;;;;;;;;;1034621;28;1143;-35
2021/09/30 03:51:18;;;;;;;;;;;;;;;;;;1025940;28;1108;-33
2021/09/30 03:52:17;;;;;;;;;;;;;;;;;;1018098;29;925;-34
2021/09/30 03:52:48;;;;;;;;;;;;;;;;;;1014363;29;1276;-33
2021/09/30 03:53:28;;;;;;;;;;;;;;;;;;1022539;29;872;-33
2021/09/30 03:54:12;;;;;;;;;;;;;;;;;;1021897;29;1906;-33
2021/09/30 03:54:53;;;;;;;;;;;;;;;;;;1030346;28;2042;-31
2021/09/30 03:56:48;;;;;;;;;;;;;;;;;;1032186;28;1236;-32
2021/09/30 03:59:19;;;;;;;;;;;;;;;;;;1022392;28;1245;-34
2021/09/30 03:59:57;;;;;;;;;;;;;;;;;;1026352;28;1151;-37
2021/09/30 04:00:44;;;;;;;;;;;;;;;;;;1025975;28;1068;-33
2021/09/30 04:01:17;;;;;;;;;;;;;;;;;;1022117;28;1539;-32
2021/09/30 04:01:52;;;;;;;;;;;;;;;;;;1017882;29;1530;-36
2021/09/30 04:02:22;;;;;;;;;;;;;;;;;;1025559;28;1208;-36
2021/09/30 04:02:52;;;;;;;;;;;;;;;;;;1023090;28;2212;-34
2021/09/30 04:03:23;;;;;;;;;;;;;;;;;;1026263;28;1193;-34
2021/09/30 04:03:57;;;;;;;;;;;;;;;;;;1026084;28;1816;-33
2021/09/30 04:04:31;;;;;;;;;;;;;;;;;;1021427;29;1465;-33
2021/09/30 04:05:02;;;;;;;;;;;;;;;;;;1022057;29;1033;-34
2021/09/30 04:05:32;;;;;;;;;;;;;;;;;;1018030;29;1139;-35
2021/09/30 04:06:03;;;;;;;;;;;;;;;;;;1014194;29;1241;-35
2021/09/30 04:06:35;;;;;;;;;;;;;;;;;;1014368;29;1162;-32
2021/09/30 04:07:07;;;;;;;;;;;;;;;;;;1018358;29;889;-33
2021/09/30 04:07:38;;;;;;;;;;;;;;;;;;1018612;29;1311;-36
2021/09/30 04:08:09;;;;;;;;;;;;;;;;;;1013292;29;1350;-36
2021/09/30 04:08:40;;;;;;;;;;;;;;;;;;1009473;29;1847;-34
2021/09/30 04:09:11;;;;;;;;;;;;;;;;;;1014043;29;1199;-36
2021/09/30 04:09:41;;;;;;;;;;;;;;;;;;1018614;28;1214;-32
2021/09/30 04:10:12;;;;;;;;;;;;;;;;;;1025608;28;1713;-36
2021/09/30 04:10:43;;;;;;;;;;;;;;;;;;1026448;28;1223;-33
2021/09/30 04:11:14;;;;;;;;;;;;;;;;;;1017622;29;1518;-36
2021/09/30 04:11:45;;;;;;;;;;;;;;;;;;1018106;29;1493;-36
2021/09/30 04:12:16;;;;;;;;;;;;;;;;;;1013683;29;1218;-33
2021/09/30 04:12:47;;;;;;;;;;;;;;;;;;1014333;29;1411;-37
2021/09/30 04:13:17;;;;;;;;;;;;;;;;;;1022042;29;1116;-36
2021/09/30 04:13:47;;;;;;;;;;;;;;;;;;1017737;29;1970;-35
2021/09/30 04:14:20;;;;;;;;;;;;;;;;;;1018076;29;1188;-33
2021/09/30 04:14:52;;;;;;;;;;;;;;;;;;1014512;29;1299;-34
2021/09/30 04:15:22;;;;;;;;;;;;;;;;;;1018708;29;1178;-35
2021/09/30 04:15:54;;;;;;;;;;;;;;;;;;1023992;28;2083;-35
2021/09/30 04:16:26;;;;;;;;;;;;;;;;;;1026234;28;1415;-37
2021/09/30 04:16:57;;;;;;;;;;;;;;;;;;1025937;28;1352;-32
2021/09/30 04:17:28;;;;;;;;;;;;;;;;;;1026051;28;1627;-36
2021/09/30 04:17:58;;;;;;;;;;;;;;;;;;1022743;28;1296;-35
2021/09/30 04:18:29;;;;;;;;;;;;;;;;;;1026136;28;1721;-33
2021/09/30 04:18:59;;;;;;;;;;;;;;;;;;1025973;28;1417;-33
2021/09/30 04:19:30;;;;;;;;;;;;;;;;;;1022234;28;1092;-32
2021/09/30 04:20:00;;;;;;;;;;;;;;;;;;1022385;29;1496;-35
2021/09/30 04:20:31;;;;;;;;;;;;;;;;;;1025748;28;1413;-32
2021/09/30 04:21:07;;;;;;;;;;;;;;;;;;1030222;28;1355;-35
2021/09/30 04:21:38;;;;;;;;;;;;;;;;;;1025611;28;1399;-35
2021/09/30 04:22:09;;;;;;;;;;;;;;;;;;1009123;29;1346;-31
2021/09/30 04:22:42;;;;;;;;;;;;;;;;;;1010191;29;1211;-37
2021/09/30 04:23:12;;;;;;;;;;;;;;;;;;1006101;29;1285;-34
2021/09/30 04:23:43;;;;;;;;;;;;;;;;;;1011096;29;1263;-35
2021/09/30 04:24:13;;;;;;;;;;;;;;;;;;1021647;29;1344;-36
2021/09/30 04:24:47;;;;;;;;;;;;;;;;;;1020831;28;1704;-33
2021/09/30 04:25:19;;;;;;;;;;;;;;;;;;1023009;28;1170;-33
2021/09/30 04:25:50;;;;;;;;;;;;;;;;;;1026511;28;957;-35
2021/09/30 04:26:22;;;;;;;;;;;;;;;;;;1024275;28;1392;-36
2021/09/30 04:26:55;;;;;;;;;;;;;;;;;;1006447;29;1142;-36
2021/09/30 04:27:25;;;;;;;;;;;;;;;;;;1005991;29;1175;-40
2021/09/30 04:28:02;;;;;;;;;;;;;;;;;;1015363;29;1393;-35
2021/09/30 04:28:32;;;;;;;;;;;;;;;;;;1016977;28;1167;-35
2021/09/30 04:29:03;;;;;;;;;;;;;;;;;;1022387;29;1476;-37
2021/09/30 04:29:33;;;;;;;;;;;;;;;;;;1019271;29;1180;-32
2021/09/30 04:30:05;;;;;;;;;;;;;;;;;;1017861;29;1412;-35
2021/09/30 04:30:48;;;;;;;;;;;;;;;;;;1019782;29;1144;-33
2021/09/30 04:31:29;;;;;;;;;;;;;;;;;;1017503;29;1375;-35
2021/09/30 04:31:59;;;;;;;;;;;;;;;;;;1021611;29;1213;-35
2021/09/30 04:32:31;;;;;;;;;;;;;;;;;;1021808;29;1049;-35
2021/09/30 04:33:02;;;;;;;;;;;;;;;;;;1022126;28;971;-32
2021/09/30 04:33:33;;;;;;;;;;;;;;;;;;1026290;28;878;-34
2021/09/30 04:34:04;;;;;;;;;;;;;;;;;;1025700;28;1970;-33
2021/09/30 04:34:34;;;;;;;;;;;;;;;;;;1029994;28;1148;-37
2021/09/30 04:35:06;;;;;;;;;;;;;;;;;;1025999;28;1221;-35
2021/09/30 04:35:37;;;;;;;;;;;;;;;;;;1022043;28;1505;-36
2021/09/30 04:36:07;;;;;;;;;;;;;;;;;;1019553;29;3637;-35
2021/09/30 04:36:38;;;;;;;;;;;;;;;;;;1018078;28;1597;-33
2021/09/30 04:37:08;;;;;;;;;;;;;;;;;;1026220;28;1037;-34
2021/09/30 04:37:43;;;;;;;;;;;;;;;;;;1022710;28;1391;-37
2021/09/30 04:38:14;;;;;;;;;;;;;;;;;;1021217;29;1200;-33
2021/09/30 04:38:45;;;;;;;;;;;;;;;;;;1024615;28;3275;-36
2021/09/30 04:39:17;;;;;;;;;;;;;;;;;;1026052;28;1641;-36
2021/09/30 04:39:50;;;;;;;;;;;;;;;;;;1013900;29;1059;-35
2021/09/30 04:40:20;;;;;;;;;;;;;;;;;;1013408;29;1297;-37
2021/09/30 04:40:53;;;;;;;;;;;;;;;;;;1013561;29;1447;-32
2021/09/30 04:41:24;;;;;;;;;;;;;;;;;;1014737;29;1188;-35
2021/09/30 04:41:55;;;;;;;;;;;;;;;;;;1013755;29;1290;-36
2021/09/30 04:42:26;;;;;;;;;;;;;;;;;;1013849;29;1285;-35
2021/09/30 04:42:57;;;;;;;;;;;;;;;;;;1022286;28;1292;-35
2021/09/30 04:43:27;;;;;;;;;;;;;;;;;;1024993;28;1427;-33
2021/09/30 04:43:59;;;;;;;;;;;;;;;;;;1030011;28;1027;-35
2021/09/30 04:44:29;;;;;;;;;;;;;;;;;;1021039;29;1323;-35
2021/09/30 04:45:00;;;;;;;;;;;;;;;;;;1021572;29;1347;-37
2021/09/30 04:45:31;;;;;;;;;;;;;;;;;;1021670;29;1260;-36
2021/09/30 04:46:12;;;;;;;;;;;;;;;;;;1026815;28;1391;-31
2021/09/30 04:46:58;;;;;;;;;;;;;;;;;;1021470;28;1467;-36
2021/09/30 04:47:47;;;;;;;;;;;;;;;;;;1014129;29;1498;-35
2021/09/30 04:48:19;;;;;;;;;;;;;;;;;;1022120;28;1327;-33
2021/09/30 04:48:58;;;;;;;;;;;;;;;;;;1021332;29;1690;-34
2021/09/30 04:49:30;;;;;;;;;;;;;;;;;;1029928;28;1149;-34
2021/09/30 04:50:02;;;;;;;;;;;;;;;;;;1032844;28;1353;-36
2021/09/30 04:50:34;;;;;;;;;;;;;;;;;;1026092;28;1219;-37
2021/09/30 04:51:05;;;;;;;;;;;;;;;;;;1021146;29;1150;-36
2021/09/30 04:51:37;;;;;;;;;;;;;;;;;;1021143;29;1189;-37
2021/09/30 04:52:07;;;;;;;;;;;;;;;;;;1022081;28;1341;-32
2021/09/30 04:52:40;;;;;;;;;;;;;;;;;;1021955;28;1127;-35
2021/09/30 04:53:12;;;;;;;;;;;;;;;;;;1021186;28;1172;-31
2021/09/30 04:53:44;;;;;;;;;;;;;;;;;;1017642;29;1199;-33
2021/09/30 04:54:17;;;;;;;;;;;;;;;;;;1020422;29;1975;-34
2021/09/30 04:54:47;;;;;;;;;;;;;;;;;;1010131;29;1089;-33
2021/09/30 04:55:18;;;;;;;;;;;;;;;;;;1013516;29;1198;-34
2021/09/30 04:55:49;;;;;;;;;;;;;;;;;;1005471;29;1657;-34
2021/09/30 04:56:20;;;;;;;;;;;;;;;;;;1014227;29;1282;-35
2021/09/30 04:56:55;;;;;;;;;;;;;;;;;;1018099;29;1595;-37
2021/09/30 04:57:34;;;;;;;;;;;;;;;;;;1019135;29;1225;-36
2021/09/30 04:58:05;;;;;;;;;;;;;;;;;;1006107;29;1291;-35
2021/09/30 04:58:38;;;;;;;;;;;;;;;;;;1011057;29;1616;-33
2021/09/30 04:59:09;;;;;;;;;;;;;;;;;;1010420;29;1257;-36
2021/09/30 04:59:40;;;;;;;;;;;;;;;;;;1011828;29;1207;-35
2021/09/30 05:00:29;;;;;;;;;;;;;;;;;;1019594;29;1033;-37
2021/09/30 05:01:35;;;;;;;;;;;;;;;;;;1024098;28;1268;-37
2021/09/30 05:02:09;;;;;;;;;;;;;;;;;;1029767;28;1553;-33
2021/09/30 05:02:40;;;;;;;;;;;;;;;;;;1025823;28;1216;-35
2021/09/30 05:03:10;;;;;;;;;;;;;;;;;;1021838;29;1106;-34
2021/09/30 05:03:41;;;;;;;;;;;;;;;;;;1021738;29;1174;-34
2021/09/30 05:04:12;;;;;;;;;;;;;;;;;;1022081;28;902;-35
2021/09/30 05:04:42;;;;;;;;;;;;;;;;;;1018030;29;1633;-36
2021/09/30 05:05:15;;;;;;;;;;;;;;;;;;1013822;29;1458;-36
2021/09/30 05:05:46;;;;;;;;;;;;;;;;;;1009407;29;1930;-35
2021/09/30 05:06:16;;;;;;;;;;;;;;;;;;1006806;29;989;-37
2021/09/30 05:06:47;;;;;;;;;;;;;;;;;;1007112;29;1195;-35
2021/09/30 05:07:17;;;;;;;;;;;;;;;;;;1018359;29;1188;-36
2021/09/30 05:07:48;;;;;;;;;;;;;;;;;;1026127;28;1343;-34
2021/09/30 05:08:18;;;;;;;;;;;;;;;;;;1017710;29;1300;-37
2021/09/30 05:08:50;;;;;;;;;;;;;;;;;;1013739;29;1062;-35
2021/09/30 05:09:23;;;;;;;;;;;;;;;;;;1013273;29;1487;-36
2021/09/30 05:09:53;;;;;;;;;;;;;;;;;;1011085;29;1347;-33
2021/09/30 05:10:31;;;;;;;;;;;;;;;;;;1021356;29;1520;-34
2021/09/30 05:11:03;;;;;;;;;;;;;;;;;;1019178;29;1308;-36
2021/09/30 05:11:40;;;;;;;;;;;;;;;;;;1017936;29;1537;-34
2021/09/30 05:12:15;;;;;;;;;;;;;;;;;;1019315;29;1989;-37
2021/09/30 05:12:48;;;;;;;;;;;;;;;;;;1019851;29;1049;-33
2021/09/30 05:13:22;;;;;;;;;;;;;;;;;;1022303;29;1620;-36
2021/09/30 05:13:57;;;;;;;;;;;;;;;;;;1021427;29;1911;-34
2021/09/30 05:14:27;;;;;;;;;;;;;;;;;;1017618;29;1202;-34
2021/09/30 05:14:58;;;;;;;;;;;;;;;;;;1014075;29;1154;-32
2021/09/30 05:15:31;;;;;;;;;;;;;;;;;;1010026;29;1422;-34
2021/09/30 05:16:03;;;;;;;;;;;;;;;;;;1010976;29;1577;-37
2021/09/30 05:16:53;;;;;;;;;;;;;;;;;;1016987;29;947;-35
2021/09/30 05:17:39;;;;;;;;;;;;;;;;;;1022962;28;1611;-34
2021/09/30 05:18:11;;;;;;;;;;;;;;;;;;1025763;28;1256;-33
2021/09/30 05:18:49;;;;;;;;;;;;;;;;;;1021743;29;986;-36
2021/09/30 05:19:20;;;;;;;;;;;;;;;;;;1016565;29;1210;-35
2021/09/30 05:19:51;;;;;;;;;;;;;;;;;;1018932;29;1447;-32
2021/09/30 05:20:22;;;;;;;;;;;;;;;;;;1019184;29;1189;-36
2021/09/30 05:20:53;;;;;;;;;;;;;;;;;;1017729;29;1003;-37
2021/09/30 05:21:24;;;;;;;;;;;;;;;;;;1017838;29;1019;-36
2021/09/30 05:21:55;;;;;;;;;;;;;;;;;;1018132;28;1318;-36
2021/09/30 05:22:25;;;;;;;;;;;;;;;;;;1025003;28;1237;-35
2021/09/30 05:22:56;;;;;;;;;;;;;;;;;;1017938;29;1176;-33
2021/09/30 05:23:27;;;;;;;;;;;;;;;;;;1013380;29;1534;-37
2021/09/30 05:23:57;;;;;;;;;;;;;;;;;;1010109;29;1357;-36
2021/09/30 05:24:28;;;;;;;;;;;;;;;;;;1022552;28;1192;-36
2021/09/30 05:24:59;;;;;;;;;;;;;;;;;;1018016;28;1269;-33
2021/09/30 05:25:29;;;;;;;;;;;;;;;;;;1021785;28;1177;-35
2021/09/30 05:26:00;;;;;;;;;;;;;;;;;;1021701;28;1348;-30
2021/09/30 05:26:30;;;;;;;;;;;;;;;;;;1017795;28;978;-35
2021/09/30 05:27:02;;;;;;;;;;;;;;;;;;1022332;28;1624;-35
2021/09/30 05:27:32;;;;;;;;;;;;;;;;;;1021995;28;1387;-34
2021/09/30 05:28:03;;;;;;;;;;;;;;;;;;1026367;28;1161;-35
2021/09/30 05:28:33;;;;;;;;;;;;;;;;;;1026145;28;1225;-35
2021/09/30 05:29:06;;;;;;;;;;;;;;;;;;1013541;29;1726;-36
2021/09/30 05:29:37;;;;;;;;;;;;;;;;;;1013515;29;1200;-36
2021/09/30 05:30:12;;;;;;;;;;;;;;;;;;1008613;29;1659;-36
2021/09/30 05:30:42;;;;;;;;;;;;;;;;;;1006876;29;1294;-36
2021/09/30 05:31:22;;;;;;;;;;;;;;;;;;1011928;29;1262;-35
2021/09/30 05:32:12;;;;;;;;;;;;;;;;;;1023611;28;1562;-32
2021/09/30 05:32:49;;;;;;;;;;;;;;;;;;1030103;28;869;-35
2021/09/30 05:33:24;;;;;;;;;;;;;;;;;;1021863;29;881;-34
2021/09/30 05:33:55;;;;;;;;;;;;;;;;;;1009837;29;1968;-36
2021/09/30 05:34:26;;;;;;;;;;;;;;;;;;1005828;29;1278;-37
2021/09/30 05:34:57;;;;;;;;;;;;;;;;;;1010033;29;3050;-37
2021/09/30 05:35:32;;;;;;;;;;;;;;;;;;1018207;29;1279;-36
2021/09/30 05:36:02;;;;;;;;;;;;;;;;;;1021680;29;3768;-35
2021/09/30 05:36:33;;;;;;;;;;;;;;;;;;1025868;28;2107;-31
2021/09/30 05:37:04;;;;;;;;;;;;;;;;;;1021951;29;1339;-31
2021/09/30 05:37:34;;;;;;;;;;;;;;;;;;1022062;28;1579;-35
2021/09/30 05:38:05;;;;;;;;;;;;;;;;;;1009829;29;1642;-35
2021/09/30 05:38:36;;;;;;;;;;;;;;;;;;1006010;29;3554;-30
2021/09/30 05:39:06;;;;;;;;;;;;;;;;;;1009895;29;1090;-34
2021/09/30 05:39:37;;;;;;;;;;;;;;;;;;1006270;29;1176;-33
2021/09/30 05:40:13;;;;;;;;;;;;;;;;;;1013482;29;1468;-35
2021/09/30 05:40:48;;;;;;;;;;;;;;;;;;1021935;29;1188;-33
2021/09/30 05:41:18;;;;;;;;;;;;;;;;;;1022885;28;1322;-33
2021/09/30 05:41:50;;;;;;;;;;;;;;;;;;1023426;28;1281;-35
2021/09/30 05:42:25;;;;;;;;;;;;;;;;;;1021261;29;1189;-36
2021/09/30 05:43:00;;;;;;;;;;;;;;;;;;1018207;29;1279;-34
2021/09/30 05:43:35;;;;;;;;;;;;;;;;;;1017697;29;1023;-36
2021/09/30 05:44:09;;;;;;;;;;;;;;;;;;1017397;29;1256;-36
2021/09/30 05:44:41;;;;;;;;;;;;;;;;;;1016437;29;1133;-34
2021/09/30 05:45:14;;;;;;;;;;;;;;;;;;1017714;29;1521;-35
2021/09/30 05:45:44;;;;;;;;;;;;;;;;;;1017931;29;1209;-35
2021/09/30 05:46:18;;;;;;;;;;;;;;;;;;1014294;29;1524;-34
2021/09/30 05:46:53;;;;;;;;;;;;;;;;;;1013918;29;1355;-36
2021/09/30 05:47:24;;;;;;;;;;;;;;;;;;1018534;29;1951;-32
2021/09/30 05:47:54;;;;;;;;;;;;;;;;;;1009733;29;1148;-32
2021/09/30 05:48:25;;;;;;;;;;;;;;;;;;1010051;29;1198;-34
2021/09/30 05:48:56;;;;;;;;;;;;;;;;;;1010085;29;1346;-34
2021/09/30 05:49:27;;;;;;;;;;;;;;;;;;1005848;29;1172;-37
2021/09/30 05:50:21;;;;;;;;;;;;;;;;;;1005498;29;1203;-39
2021/09/30 05:51:15;;;;;;;;;;;;;;;;;;1017310;28;1459;-31
2021/09/30 05:52:05;;;;;;;;;;;;;;;;;;1021962;29;1496;-37
2021/09/30 05:52:49;;;;;;;;;;;;;;;;;;1018333;29;1438;-34
2021/09/30 05:53:45;;;;;;;;;;;;;;;;;;1021042;29;1598;-36
2021/09/30 05:54:28;;;;;;;;;;;;;;;;;;1018509;29;1497;-37
2021/09/30 05:55:13;;;;;;;;;;;;;;;;;;1025972;28;1165;-35
2021/09/30 05:55:44;;;;;;;;;;;;;;;;;;1022009;29;1433;-36
2021/09/30 05:56:17;;;;;;;;;;;;;;;;;;1017893;29;950;-37
2021/09/30 05:56:48;;;;;;;;;;;;;;;;;;1004975;29;1513;-33
2021/09/30 05:57:18;;;;;;;;;;;;;;;;;;1002715;29;1240;-37
2021/09/30 05:57:48;;;;;;;;;;;;;;;;;;1006431;29;1264;-35
2021/09/30 05:58:20;;;;;;;;;;;;;;;;;;1006591;29;1706;-34
2021/09/30 05:58:52;;;;;;;;;;;;;;;;;;1014117;29;1482;-33
2021/09/30 05:59:22;;;;;;;;;;;;;;;;;;1014707;29;993;-34
2021/09/30 05:59:54;;;;;;;;;;;;;;;;;;1018116;29;1151;-34
2021/09/30 06:01:18;;;;;;;;;;;;;;;;;;1009789;29;1141;-33
2021/09/30 06:12:38;;;;;;;;;;;;;;;;;;1014349;29;1375;-34
2021/09/30 06:13:15;;;;;;;;;;;;;;;;;;1013108;29;1275;-34
2021/09/30 06:13:59;;;;;;;;;;;;;;;;;;1010435;29;1233;-31
2021/09/30 06:14:32;;;;;;;;;;;;;;;;;;1013761;29;1087;-33
2021/09/30 06:15:06;;;;;;;;;;;;;;;;;;1025144;28;1156;-32
2021/09/30 06:15:41;;;;;;;;;;;;;;;;;;1026527;28;888;-35
2021/09/30 06:16:15;;;;;;;;;;;;;;;;;;1022402;29;981;-32
2021/09/30 06:16:48;;;;;;;;;;;;;;;;;;1020217;29;1502;-33
2021/09/30 06:17:21;;;;;;;;;;;;;;;;;;1022422;29;1051;-35
2021/09/30 06:17:59;;;;;;;;;;;;;;;;;;1023333;28;1241;-34
2021/09/30 06:18:30;;;;;;;;;;;;;;;;;;1026153;28;1331;-33
2021/09/30 06:19:03;;;;;;;;;;;;;;;;;;1017212;29;1263;-30
2021/09/30 06:19:36;;;;;;;;;;;;;;;;;;1014457;29;1148;-34
2021/09/30 06:20:10;;;;;;;;;;;;;;;;;;1019596;29;1304;-33
2021/09/30 06:20:41;;;;;;;;;;;;;;;;;;1016744;29;1069;-35
2021/09/30 06:21:15;;;;;;;;;;;;;;;;;;1018524;29;1593;-35
2021/09/30 06:21:46;;;;;;;;;;;;;;;;;;1009830;29;1245;-35
2021/09/30 06:22:16;;;;;;;;;;;;;;;;;;1007202;29;2631;-35
2021/09/30 06:22:47;;;;;;;;;;;;;;;;;;1010685;29;1632;-32
2021/09/30 06:23:17;;;;;;;;;;;;;;;;;;1010753;29;1251;-31
2021/09/30 06:23:48;;;;;;;;;;;;;;;;;;1018289;29;1154;-34
2021/09/30 06:24:19;;;;;;;;;;;;;;;;;;1022677;29;1455;-35
2021/09/30 06:24:57;;;;;;;;;;;;;;;;;;1025694;28;1212;-34
2021/09/30 06:25:27;;;;;;;;;;;;;;;;;;1022523;29;1127;-36
2021/09/30 06:25:58;;;;;;;;;;;;;;;;;;1022786;29;1385;-35
2021/09/30 06:26:29;;;;;;;;;;;;;;;;;;1018556;29;1276;-31
2021/09/30 06:27:14;;;;;;;;;;;;;;;;;;1022831;29;1732;-31
2021/09/30 06:27:45;;;;;;;;;;;;;;;;;;1022353;29;1353;-31
2021/09/30 06:28:16;;;;;;;;;;;;;;;;;;1022534;29;1355;-36
2021/09/30 06:28:50;;;;;;;;;;;;;;;;;;1020140;29;1490;-32
2021/09/30 06:29:21;;;;;;;;;;;;;;;;;;1014199;29;1418;-36
2021/09/30 06:29:53;;;;;;;;;;;;;;;;;;1015293;29;1327;-34
2021/09/30 06:30:29;;;;;;;;;;;;;;;;;;1022721;28;1288;-34
2021/09/30 06:31:03;;;;;;;;;;;;;;;;;;1024206;28;2946;-35
2021/09/30 06:32:00;;;;;;;;;;;;;;;;;;1021839;29;1106;-31
2021/09/30 06:32:59;;;;;;;;;;;;;;;;;;1017990;29;1408;-35
2021/09/30 06:33:56;;;;;;;;;;;;;;;;;;1021748;28;2043;-35
2021/09/30 06:34:41;;;;;;;;;;;;;;;;;;1030371;28;1185;-34
2021/09/30 06:35:21;;;;;;;;;;;;;;;;;;1026337;28;1076;-37
2021/09/30 06:35:55;;;;;;;;;;;;;;;;;;1022422;28;3707;-33
2021/09/30 06:36:26;;;;;;;;;;;;;;;;;;1021580;28;1514;-36
2021/09/30 06:36:56;;;;;;;;;;;;;;;;;;1019151;28;1161;-32
2021/09/30 06:37:27;;;;;;;;;;;;;;;;;;1018333;29;980;-36
2021/09/30 06:37:57;;;;;;;;;;;;;;;;;;1022178;29;1300;-34
2021/09/30 06:38:29;;;;;;;;;;;;;;;;;;1011601;29;3451;-34
2021/09/30 06:38:59;;;;;;;;;;;;;;;;;;1015611;28;1725;-33
2021/09/30 06:39:32;;;;;;;;;;;;;;;;;;1022441;29;1218;-34
2021/09/30 06:40:04;;;;;;;;;;;;;;;;;;1022378;28;1339;-34
2021/09/30 06:40:35;;;;;;;;;;;;;;;;;;1018101;29;1428;-34
2021/09/30 06:41:05;;;;;;;;;;;;;;;;;;1014133;29;1473;-37
2021/09/30 06:41:35;;;;;;;;;;;;;;;;;;1014680;29;1142;-32
2021/09/30 06:42:26;;;;;;;;;;;;;;;;;;1021091;29;1069;-33
2021/09/30 06:42:57;;;;;;;;;;;;;;;;;;1023034;29;1240;-35
2021/09/30 06:44:06;;;;;;;;;;;;;;;;;;1022364;29;1099;-31
2021/09/30 06:45:04;;;;;;;;;;;;;;;;;;1014256;29;1460;-29
2021/09/30 06:45:57;;;;;;;;;;;;;;;;;;1013113;29;1229;-36
2021/09/30 06:46:44;;;;;;;;;;;;;;;;;;1022102;28;1260;-34
2021/09/30 06:47:21;;;;;;;;;;;;;;;;;;1022523;28;1430;-34
2021/09/30 06:47:52;;;;;;;;;;;;;;;;;;1026327;28;1296;-33
2021/09/30 06:48:30;;;;;;;;;;;;;;;;;;1015733;29;1316;-32